createdAt,value
2018-02-20T00:01:10.479Z,5.30
2018-02-20T00:03:44.851Z,5.30
2018-02-20T00:06:19.257Z,5.30
2018-02-20T00:08:54.479Z,5.20
2018-02-20T00:11:28.834Z,5.20
2018-02-20T00:14:02.848Z,5.20
2018-02-20T00:16:36.688Z,5.20
2018-02-20T00:19:10.708Z,5.20
2018-02-20T00:21:45.657Z,5.20
2018-02-20T00:24:19.459Z,5.10
2018-02-20T00:26:53.522Z,5.10
2018-02-20T00:29:28.137Z,5.00
2018-02-20T00:32:02.070Z,5.00
2018-02-20T00:34:36.567Z,5.00
2018-02-20T00:37:10.702Z,5.00
2018-02-20T00:39:45.279Z,4.90
2018-02-20T00:42:21.055Z,4.90
2018-02-20T00:44:55.372Z,4.90
2018-02-20T00:47:29.988Z,4.90
2018-02-20T00:50:04.166Z,4.90
2018-02-20T00:52:38.120Z,4.80
2018-02-20T00:55:12.134Z,4.80
2018-02-20T00:57:45.792Z,4.80
2018-02-20T01:00:19.817Z,4.60
2018-02-20T01:02:53.891Z,4.60
2018-02-20T01:05:27.882Z,4.60
2018-02-20T01:08:01.948Z,4.60
2018-02-20T01:10:36.483Z,4.60
2018-02-20T01:13:11.426Z,4.50
2018-02-20T01:15:45.477Z,4.50
2018-02-20T01:18:19.359Z,4.50
2018-02-20T01:20:54.183Z,4.50
2018-02-20T01:23:28.994Z,4.50
2018-02-20T01:26:03.167Z,4.40
2018-02-20T01:28:37.845Z,4.40
2018-02-20T01:31:12.095Z,4.30
2018-02-20T01:33:45.704Z,4.20
2018-02-20T01:36:19.346Z,4.20
2018-02-20T01:38:53.988Z,4.20
2018-02-20T01:41:27.940Z,4.10
2018-02-20T01:44:01.702Z,4.10
2018-02-20T01:46:35.551Z,4.00
2018-02-20T01:49:09.580Z,4.00
2018-02-20T01:51:44.155Z,3.90
2018-02-20T01:54:18.138Z,3.90
2018-02-20T01:56:51.961Z,3.90
2018-02-20T01:59:26.464Z,3.80
2018-02-20T02:02:01.009Z,3.80
2018-02-20T02:04:35.053Z,3.80
2018-02-20T02:07:09.095Z,3.80
2018-02-20T02:09:43.285Z,3.80
2018-02-20T02:14:53.086Z,3.80
2018-02-20T02:17:27.232Z,3.70
2018-02-20T02:20:01.082Z,3.60
2018-02-20T02:22:36.247Z,3.60
2018-02-20T02:25:09.946Z,3.60
2018-02-20T02:27:43.892Z,3.60
2018-02-20T02:30:18.055Z,3.60
2018-02-20T02:32:51.923Z,3.60
2018-02-20T02:35:25.689Z,3.60
2018-02-20T02:37:59.768Z,3.50
2018-02-20T02:40:33.634Z,3.60
2018-02-20T02:43:08.354Z,3.50
2018-02-20T02:45:43.151Z,3.50
2018-02-20T02:48:18.221Z,3.50
2018-02-20T02:50:53.335Z,3.60
2018-02-20T02:53:27.239Z,3.60
2018-02-20T02:56:01.967Z,3.50
2018-02-20T02:58:35.888Z,3.40
2018-02-20T03:01:09.682Z,3.40
2018-02-20T03:03:44.201Z,3.30
2018-02-20T03:06:18.372Z,3.30
2018-02-20T03:08:52.162Z,3.30
2018-02-20T03:11:25.968Z,3.20
2018-02-20T03:13:59.864Z,3.20
2018-02-20T03:16:33.715Z,3.10
2018-02-20T03:19:07.481Z,3.10
2018-02-20T03:21:41.384Z,3.10
2018-02-20T03:24:16.020Z,3.10
2018-02-20T03:26:50.090Z,3.10
2018-02-20T03:29:23.973Z,3.10
2018-02-20T03:31:58.544Z,3.10
2018-02-20T03:34:33.279Z,3.00
2018-02-20T03:37:07.504Z,3.10
2018-02-20T03:39:42.195Z,3.00
2018-02-20T03:42:15.979Z,3.00
2018-02-20T03:44:50.638Z,3.00
2018-02-20T03:47:24.779Z,2.90
2018-02-20T03:49:58.987Z,2.90
2018-02-20T03:52:33.019Z,2.80
2018-02-20T03:55:07.311Z,2.80
2018-02-20T03:57:42.640Z,2.70
2018-02-20T04:00:16.371Z,2.70
2018-02-20T04:02:50.205Z,2.60
2018-02-20T04:05:24.075Z,2.60
2018-02-20T04:07:57.951Z,2.60
2018-02-20T04:10:31.788Z,2.50
2018-02-20T04:13:05.652Z,2.60
2018-02-20T04:15:40.085Z,2.60
2018-02-20T04:18:14.960Z,2.60
2018-02-20T04:20:49.047Z,2.50
2018-02-20T04:23:23.683Z,2.50
2018-02-20T04:25:57.548Z,2.60
2018-02-20T04:28:31.607Z,2.40
2018-02-20T04:31:06.298Z,2.40
2018-02-20T04:33:40.539Z,2.40
2018-02-20T04:36:14.395Z,2.40
2018-02-20T04:38:49.158Z,2.30
2018-02-20T04:41:23.250Z,2.30
2018-02-20T04:43:57.311Z,2.20
2018-02-20T04:46:31.127Z,2.10
2018-02-20T04:49:05.831Z,2.10
2018-02-20T04:51:40.127Z,2.00
2018-02-20T04:54:13.956Z,1.90
2018-02-20T04:56:49.009Z,1.90
2018-02-20T04:59:22.789Z,1.90
2018-02-20T05:01:57.495Z,1.80
2018-02-20T05:04:31.718Z,1.80
2018-02-20T05:07:06.465Z,1.70
2018-02-20T05:09:40.249Z,1.70
2018-02-20T05:12:14.881Z,1.70
2018-02-20T05:14:48.501Z,1.70
2018-02-20T05:17:22.060Z,1.70
2018-02-20T05:19:55.830Z,1.70
2018-02-20T05:22:29.730Z,1.70
2018-02-20T05:25:03.479Z,1.80
2018-02-20T05:27:38.116Z,1.80
2018-02-20T05:30:12.755Z,1.80
2018-02-20T05:32:46.942Z,1.70
2018-02-20T05:35:21.586Z,1.70
2018-02-20T05:37:56.528Z,1.70
2018-02-20T05:40:30.357Z,1.60
2018-02-20T05:43:04.104Z,1.60
2018-02-20T05:45:38.139Z,1.60
2018-02-20T05:48:12.679Z,1.60
2018-02-20T05:50:46.627Z,1.60
2018-02-20T05:53:21.202Z,1.60
2018-02-20T05:55:55.415Z,1.50
2018-02-20T05:58:29.304Z,1.60
2018-02-20T06:01:03.119Z,1.60
2018-02-20T06:03:37.928Z,1.60
2018-02-20T06:06:12.085Z,1.60
2018-02-20T06:08:46.191Z,1.60
2018-02-20T06:11:20.174Z,1.60
2018-02-20T06:13:53.848Z,1.60
2018-02-20T06:16:27.906Z,1.60
2018-02-20T06:19:01.824Z,1.60
2018-02-20T06:21:35.535Z,1.60
2018-02-20T06:24:10.431Z,1.70
2018-02-20T06:26:44.607Z,1.60
2018-02-20T06:29:18.537Z,1.70
2018-02-20T06:31:52.555Z,1.70
2018-02-20T06:34:26.359Z,1.70
2018-02-20T06:37:02.051Z,1.70
2018-02-20T06:39:36.379Z,1.70
2018-02-20T06:42:10.058Z,1.70
2018-02-20T06:44:44.103Z,1.90
2018-02-20T06:47:18.307Z,1.80
2018-02-20T06:49:52.209Z,1.80
2018-02-20T06:52:27.033Z,1.80
2018-02-20T06:55:01.422Z,1.80
2018-02-20T06:57:35.419Z,1.80
2018-02-20T07:00:09.317Z,1.80
2018-02-20T07:02:43.088Z,1.80
2018-02-20T07:05:17.294Z,1.90
2018-02-20T07:07:52.201Z,2.00
2018-02-20T07:10:27.055Z,2.10
2018-02-20T07:13:01.442Z,2.00
2018-02-20T07:15:35.199Z,2.10
2018-02-20T07:18:09.092Z,2.20
2018-02-20T07:20:43.225Z,2.20
2018-02-20T07:23:18.319Z,2.30
2018-02-20T07:25:52.602Z,2.30
2018-02-20T07:28:26.483Z,2.50
2018-02-20T07:31:01.595Z,3.20
2018-02-20T07:33:36.336Z,3.40
2018-02-20T07:36:10.421Z,3.40
2018-02-20T07:38:44.262Z,3.50
2018-02-20T07:41:18.252Z,3.70
2018-02-20T07:43:52.909Z,4.90
2018-02-20T07:46:27.272Z,4.90
2018-02-20T07:49:01.087Z,5.60
2018-02-20T07:51:35.605Z,6.50
2018-02-20T07:54:09.935Z,6.50
2018-02-20T07:56:44.140Z,6.50
2018-02-20T07:59:18.140Z,6.40
2018-02-20T08:01:52.672Z,6.50
2018-02-20T08:04:27.081Z,6.50
2018-02-20T08:07:01.445Z,6.50
2018-02-20T08:09:35.427Z,6.40
2018-02-20T08:12:10.753Z,7.00
2018-02-20T08:14:46.016Z,7.10
2018-02-20T08:17:21.220Z,7.30
2018-02-20T08:19:55.640Z,7.30
2018-02-20T08:22:29.719Z,8.10
2018-02-20T08:25:04.915Z,10.20
2018-02-20T08:27:40.159Z,10.80
2018-02-20T08:30:14.725Z,10.80
2018-02-20T08:32:48.634Z,11.10
2018-02-20T08:35:22.317Z,11.50
2018-02-20T08:37:57.100Z,10.80
2018-02-20T08:40:31.491Z,10.80
2018-02-20T08:43:05.365Z,10.30
2018-02-20T08:45:39.160Z,10.30
2018-02-20T08:48:13.600Z,11.90
2018-02-20T08:50:47.731Z,11.90
2018-02-20T08:53:21.640Z,12.60
2018-02-20T08:55:55.453Z,13.60
2018-02-20T08:58:29.602Z,14.30
2018-02-20T09:01:03.788Z,14.40
2018-02-20T09:03:38.174Z,14.40
2018-02-20T09:06:12.320Z,14.40
2018-02-20T09:08:46.391Z,14.90
2018-02-20T09:11:21.224Z,15.90
2018-02-20T09:13:55.924Z,16.60
2018-02-20T09:16:30.300Z,16.60
2018-02-20T09:19:05.064Z,17.60
2018-02-20T09:21:38.614Z,17.60
2018-02-20T09:24:12.197Z,17.90
2018-02-20T09:26:46.284Z,18.20
2018-02-20T09:29:20.785Z,18.30
2018-02-20T09:31:54.659Z,18.10
2018-02-20T09:34:29.187Z,17.60
2018-02-20T09:37:03.221Z,17.30
2018-02-20T09:39:37.373Z,17.90
2018-02-20T09:42:11.568Z,18.80
2018-02-20T09:44:45.717Z,19.90
2018-02-20T09:47:20.056Z,20.60
2018-02-20T09:49:54.134Z,20.60
2018-02-20T09:52:28.229Z,22.10
2018-02-20T09:55:01.981Z,20.60
2018-02-20T09:57:35.748Z,20.90
2018-02-20T10:00:09.420Z,21.50
2018-02-20T10:02:43.439Z,21.80
2018-02-20T10:05:17.236Z,21.70
2018-02-20T10:07:51.912Z,22.00
2018-02-20T10:10:27.167Z,21.70
2018-02-20T10:13:01.429Z,21.70
2018-02-20T10:15:35.748Z,21.50
2018-02-20T10:18:10.120Z,21.20
2018-02-20T10:20:44.211Z,21.30
2018-02-20T10:23:18.233Z,21.50
2018-02-20T10:25:53.228Z,21.00
2018-02-20T10:28:26.924Z,21.00
2018-02-20T10:31:01.116Z,20.40
2018-02-20T10:33:35.280Z,20.40
2018-02-20T10:36:10.005Z,19.60
2018-02-20T10:38:45.031Z,19.00
2018-02-20T10:41:19.164Z,19.00
2018-02-20T10:43:53.176Z,18.50
2018-02-20T10:46:27.610Z,18.30
2018-02-20T10:49:02.101Z,18.00
2018-02-20T10:51:36.191Z,17.40
2018-02-20T10:54:10.557Z,17.10
2018-02-20T10:56:44.522Z,16.50
2018-02-20T10:59:18.793Z,16.10
2018-02-20T11:01:52.656Z,16.10
2018-02-20T11:04:26.826Z,16.40
2018-02-20T11:07:00.556Z,16.70
2018-02-20T11:09:34.268Z,17.10
2018-02-20T11:12:08.936Z,17.50
2018-02-20T11:14:43.031Z,17.50
2018-02-20T11:17:16.777Z,17.70
2018-02-20T11:19:50.872Z,18.10
2018-02-20T11:22:25.004Z,18.30
2018-02-20T11:24:59.192Z,18.60
2018-02-20T11:27:33.401Z,18.80
2018-02-20T11:30:07.540Z,18.60
2018-02-20T11:32:43.242Z,18.30
2018-02-20T11:35:17.624Z,18.20
2018-02-20T11:37:51.974Z,18.40
2018-02-20T11:40:25.502Z,18.30
2018-02-20T11:42:59.568Z,18.10
2018-02-20T11:45:33.789Z,18.00
2018-02-20T11:48:07.832Z,17.20
2018-02-20T11:50:42.813Z,16.60
2018-02-20T11:53:17.190Z,16.20
2018-02-20T11:55:51.598Z,16.00
2018-02-20T11:58:26.345Z,16.30
2018-02-20T12:01:02.258Z,15.90
2018-02-20T12:03:35.860Z,15.90
2018-02-20T12:06:10.004Z,15.80
2018-02-20T12:08:44.913Z,15.90
2018-02-20T12:11:19.216Z,15.90
2018-02-20T12:13:53.194Z,15.60
2018-02-20T12:16:27.293Z,15.60
2018-02-20T12:19:01.071Z,15.40
2018-02-20T12:21:35.005Z,15.00
2018-02-20T12:24:08.971Z,14.80
2018-02-20T12:26:42.754Z,14.80
2018-02-20T12:29:16.876Z,14.80
2018-02-20T12:31:51.044Z,14.90
2018-02-20T12:34:26.084Z,15.10
2018-02-20T12:37:00.192Z,15.10
2018-02-20T12:39:34.161Z,15.30
2018-02-20T12:42:08.547Z,15.50
2018-02-20T12:44:43.029Z,15.60
2018-02-20T12:47:17.310Z,15.50
2018-02-20T12:49:51.368Z,15.40
2018-02-20T12:52:25.748Z,15.40
2018-02-20T12:54:59.981Z,15.20
2018-02-20T12:57:34.130Z,14.80
2018-02-20T13:00:08.480Z,14.40
2018-02-20T13:02:43.835Z,13.50
2018-02-20T13:05:18.112Z,13.50
2018-02-20T13:07:51.680Z,12.70
2018-02-20T13:10:26.053Z,12.50
2018-02-20T13:13:00.576Z,12.40
2018-02-20T13:15:34.625Z,12.10
2018-02-20T13:18:08.819Z,11.90
2018-02-20T13:20:42.820Z,11.90
2018-02-20T13:23:17.128Z,12.00
2018-02-20T13:25:52.231Z,12.00
2018-02-20T13:28:27.431Z,8.40
2018-02-20T13:31:01.255Z,12.00
2018-02-20T13:33:35.219Z,12.10
2018-02-20T13:36:09.897Z,12.20
2018-02-20T13:38:43.968Z,12.20
2018-02-20T13:41:18.715Z,12.50
2018-02-20T13:43:53.207Z,12.50
2018-02-20T13:46:27.187Z,12.40
2018-02-20T13:49:01.077Z,12.50
2018-02-20T13:51:36.100Z,12.60
2018-02-20T13:54:10.544Z,12.50
2018-02-20T13:56:44.523Z,12.40
2018-02-20T13:59:18.709Z,12.30
2018-02-20T14:01:53.857Z,12.10
2018-02-20T14:04:28.345Z,12.10
2018-02-20T14:07:02.726Z,12.00
2018-02-20T14:09:37.228Z,11.70
2018-02-20T14:12:11.589Z,11.40
2018-02-20T14:14:45.763Z,11.10
2018-02-20T14:17:20.140Z,11.00
2018-02-20T14:19:54.212Z,10.80
2018-02-20T14:22:28.406Z,10.50
2018-02-20T14:25:02.510Z,10.20
2018-02-20T14:27:36.516Z,9.80
2018-02-20T14:30:10.756Z,9.70
2018-02-20T14:32:44.999Z,9.70
2018-02-20T14:35:19.937Z,9.90
2018-02-20T14:37:54.913Z,10.10
2018-02-20T14:40:30.089Z,10.20
2018-02-20T14:43:04.300Z,10.20
2018-02-20T14:45:38.211Z,10.10
2018-02-20T14:48:12.096Z,9.60
2018-02-20T14:50:46.866Z,9.40
2018-02-20T14:53:21.027Z,9.40
2018-02-20T14:55:55.035Z,9.30
2018-02-20T14:58:28.839Z,9.20
2018-02-20T15:01:03.052Z,9.20
2018-02-20T15:03:37.274Z,9.10
2018-02-20T15:06:11.999Z,9.00
2018-02-20T15:08:46.371Z,8.80
2018-02-20T15:11:20.814Z,8.80
2018-02-20T15:13:55.900Z,8.40
2018-02-20T15:16:30.302Z,8.30
2018-02-20T15:19:04.433Z,8.20
2018-02-20T15:21:39.685Z,7.80
2018-02-20T15:24:13.348Z,7.70
2018-02-20T15:26:47.456Z,7.90
2018-02-20T15:29:21.760Z,7.70
2018-02-20T15:31:55.539Z,7.70
2018-02-20T15:34:30.225Z,7.60
2018-02-20T15:37:03.892Z,7.50
2018-02-20T15:39:38.119Z,7.40
2018-02-20T15:42:13.089Z,7.10
2018-02-20T15:44:47.467Z,7.10
2018-02-20T15:47:22.005Z,7.00
2018-02-20T15:49:55.767Z,7.00
2018-02-20T15:52:29.569Z,6.80
2018-02-20T15:55:03.382Z,6.80
2018-02-20T15:57:37.154Z,6.70
2018-02-20T16:00:11.234Z,6.70
2018-02-20T16:02:45.245Z,6.80
2018-02-20T16:05:19.231Z,8.20
2018-02-20T16:07:53.244Z,6.70
2018-02-20T16:10:28.212Z,6.80
2018-02-20T16:13:02.595Z,6.70
2018-02-20T16:15:38.071Z,6.60
2018-02-20T16:18:12.789Z,6.30
2018-02-20T16:20:47.073Z,6.30
2018-02-20T16:23:22.039Z,6.10
2018-02-20T16:25:56.580Z,6.00
2018-02-20T16:28:30.227Z,6.00
2018-02-20T16:31:05.422Z,5.90
2018-02-20T16:33:39.799Z,5.90
2018-02-20T16:36:14.290Z,5.90
2018-02-20T16:38:49.365Z,5.80
2018-02-20T16:41:23.811Z,7.40
2018-02-20T16:43:58.088Z,3.70
2018-02-20T16:46:32.181Z,5.80
2018-02-20T16:49:06.527Z,5.90
2018-02-20T16:51:40.697Z,5.90
2018-02-20T16:54:15.224Z,5.90
2018-02-20T16:56:49.320Z,5.90
2018-02-20T16:59:23.345Z,5.80
2018-02-20T17:01:57.221Z,5.60
2018-02-20T17:04:32.159Z,5.20
2018-02-20T17:07:05.983Z,5.20
2018-02-20T17:09:39.885Z,5.20
2018-02-20T17:12:13.771Z,5.00
2018-02-20T17:14:48.018Z,5.00
2018-02-20T17:17:22.006Z,5.00
2018-02-20T17:19:56.950Z,5.10
2018-02-20T17:22:31.402Z,5.00
2018-02-20T17:25:05.257Z,5.10
2018-02-20T17:27:39.903Z,5.00
2018-02-20T17:30:15.025Z,4.90
2018-02-20T17:32:50.081Z,4.80
2018-02-20T17:35:24.505Z,4.80
2018-02-20T17:38:00.787Z,4.80
2018-02-20T17:40:33.746Z,4.80
2018-02-20T17:43:08.167Z,4.70
2018-02-20T17:45:42.148Z,4.70
2018-02-20T17:48:16.611Z,4.60
2018-02-20T17:50:50.831Z,4.70
2018-02-20T17:53:25.051Z,4.60
2018-02-20T17:55:59.110Z,4.60
2018-02-20T17:58:33.428Z,4.60
2018-02-20T18:01:07.387Z,4.50
2018-02-20T18:03:41.391Z,4.50
2018-02-20T18:06:16.682Z,4.50
2018-02-20T18:08:51.963Z,4.40
2018-02-20T18:11:26.348Z,4.40
2018-02-20T18:14:00.334Z,4.40
2018-02-20T18:16:34.408Z,4.40
2018-02-20T18:19:08.443Z,4.50
2018-02-20T18:21:43.039Z,4.50
2018-02-20T18:24:17.139Z,4.40
2018-02-20T18:26:51.126Z,4.40
2018-02-20T18:29:25.073Z,4.30
2018-02-20T18:31:59.203Z,4.20
2018-02-20T18:34:33.997Z,4.20
2018-02-20T18:37:08.933Z,4.20
2018-02-20T18:39:44.143Z,4.10
2018-02-20T18:42:19.408Z,4.00
2018-02-20T18:44:53.867Z,4.00
2018-02-20T18:47:27.640Z,4.00
2018-02-20T18:50:01.860Z,3.90
2018-02-20T18:52:36.991Z,3.90
2018-02-20T18:55:11.056Z,3.80
2018-02-20T18:57:45.453Z,3.90
2018-02-20T19:00:20.197Z,3.80
2018-02-20T19:02:54.241Z,3.80
2018-02-20T19:05:28.357Z,3.80
2018-02-20T19:08:02.326Z,3.70
2018-02-20T19:10:36.301Z,3.70
2018-02-20T19:13:10.690Z,3.60
2018-02-20T19:15:44.651Z,3.60
2018-02-20T19:18:18.765Z,3.50
2018-02-20T19:20:53.474Z,3.50
2018-02-20T19:23:27.775Z,3.50
2018-02-20T19:26:03.119Z,3.50
2018-02-20T19:28:37.834Z,3.50
2018-02-20T19:31:11.761Z,3.50
2018-02-20T19:33:45.492Z,3.60
2018-02-20T19:36:19.618Z,3.60
2018-02-20T19:38:54.586Z,3.60
2018-02-20T19:41:28.613Z,3.60
2018-02-20T19:44:02.645Z,3.60
2018-02-20T19:46:36.823Z,3.60
2018-02-20T19:49:10.935Z,3.60
2018-02-20T19:51:44.962Z,3.60
2018-02-20T19:54:19.129Z,3.60
2018-02-20T19:56:53.308Z,0.50
2018-02-20T19:59:27.319Z,3.70
2018-02-20T20:02:01.299Z,3.70
2018-02-20T20:04:35.249Z,3.60
2018-02-20T20:07:10.474Z,3.60
2018-02-20T20:09:44.811Z,3.60
2018-02-20T20:12:19.167Z,3.60
2018-02-20T20:14:53.396Z,3.60
2018-02-20T20:17:28.987Z,3.60
2018-02-20T20:20:03.401Z,3.60
2018-02-20T20:22:37.714Z,3.60
2018-02-20T20:25:11.796Z,3.50
2018-02-20T20:27:45.964Z,3.60
2018-02-20T20:30:20.159Z,3.60
2018-02-20T20:32:54.367Z,3.60
2018-02-20T20:35:28.386Z,3.60
2018-02-20T20:38:02.194Z,3.50
2018-02-20T20:40:36.789Z,3.50
2018-02-20T20:43:10.912Z,3.50
2018-02-20T20:45:45.666Z,3.50
2018-02-20T20:48:19.782Z,3.50
2018-02-20T20:50:53.627Z,3.40
2018-02-20T20:53:28.480Z,3.50
2018-02-20T20:56:02.831Z,3.40
2018-02-20T20:58:36.824Z,3.40
2018-02-20T21:01:10.755Z,3.40
2018-02-20T21:03:44.933Z,3.40
2018-02-20T21:06:18.739Z,3.30
2018-02-20T21:08:52.562Z,3.30
2018-02-20T21:11:26.704Z,3.30
2018-02-20T21:14:00.609Z,3.30
2018-02-20T21:16:34.735Z,3.30
2018-02-20T21:19:09.237Z,3.20
2018-02-20T21:21:43.447Z,3.20
2018-02-20T21:24:18.337Z,3.10
2018-02-20T21:26:53.439Z,3.10
2018-02-20T21:29:27.956Z,3.00
2018-02-20T21:32:02.160Z,3.00
2018-02-20T21:34:36.317Z,3.00
2018-02-20T21:37:10.555Z,3.00
2018-02-20T21:39:45.273Z,3.00
2018-02-20T21:42:20.296Z,3.00
2018-02-20T21:44:54.116Z,3.00
2018-02-20T21:47:28.483Z,3.00
2018-02-20T21:50:02.412Z,2.90
2018-02-20T21:52:36.484Z,2.90
2018-02-20T21:55:10.990Z,2.90
2018-02-20T21:57:45.715Z,2.90
2018-02-20T22:00:19.795Z,2.90
2018-02-20T22:02:53.612Z,2.80
2018-02-20T22:05:27.556Z,2.80
2018-02-20T22:08:01.363Z,2.80
2018-02-20T22:10:36.306Z,2.70
2018-02-20T22:13:10.831Z,2.70
2018-02-20T22:15:44.992Z,2.60
2018-02-20T22:18:18.894Z,2.70
2018-02-20T22:20:53.839Z,2.60
2018-02-20T22:23:28.191Z,2.60
2018-02-20T22:26:03.027Z,2.50
2018-02-20T22:28:37.128Z,2.50
2018-02-20T22:31:11.360Z,2.50
2018-02-20T22:33:45.331Z,2.50
2018-02-20T22:36:19.564Z,2.50
2018-02-20T22:38:53.640Z,2.40
2018-02-20T22:41:28.587Z,2.40
2018-02-20T22:44:02.790Z,2.40
2018-02-20T22:46:36.435Z,2.40
2018-02-20T22:49:10.228Z,2.40
2018-02-20T22:51:44.125Z,2.40
2018-02-20T22:54:17.924Z,2.40
2018-02-20T22:56:51.743Z,2.40
2018-02-20T22:59:25.869Z,2.40
2018-02-20T23:02:00.070Z,2.40
2018-02-20T23:04:33.869Z,2.30
2018-02-20T23:07:07.677Z,2.30
2018-02-20T23:09:42.590Z,2.30
2018-02-20T23:12:16.742Z,2.30
2018-02-20T23:14:50.642Z,2.30
2018-02-20T23:17:24.712Z,2.30
2018-02-20T23:19:59.500Z,2.20
2018-02-20T23:22:33.603Z,2.10
2018-02-20T23:25:07.620Z,2.10
2018-02-20T23:27:41.521Z,2.10
2018-02-20T23:30:15.504Z,2.10
2018-02-20T23:32:49.773Z,2.10
2018-02-20T23:35:23.902Z,2.10
2018-02-20T23:37:59.021Z,2.10
2018-02-20T23:40:33.359Z,2.10
2018-02-20T23:43:07.638Z,2.10
2018-02-20T23:45:41.931Z,2.10
2018-02-20T23:48:16.273Z,2.00
2018-02-20T23:50:50.992Z,2.00
2018-02-20T23:53:26.033Z,2.00
2018-02-20T23:56:00.319Z,2.00
2018-02-20T23:58:34.742Z,1.90
